sensor_id;sensor_type;location;lat;lon;timestamp;P1;durP1;ratioP1;P2;durP2;ratioP2
40847;SDS011;26570;50.962;5.340;2023-04-03T00:02:48;11.87;;;5.93;;
40847;SDS011;26570;50.962;5.340;2023-04-03T00:05:56;9.37;;;6.10;;
40847;SDS011;26570;50.962;5.340;2023-04-03T00:08:41;12.80;;;7.20;;
40847;SDS011;26570;50.962;5.340;2023-04-03T00:11:27;10.53;;;7.20;;
40847;SDS011;26570;50.962;5.340;2023-04-03T00:14:12;8.93;;;7.00;;
40847;SDS011;26570;50.962;5.340;2023-04-03T00:16:57;11.17;;;6.67;;
40847;SDS011;26570;50.962;5.340;2023-04-03T00:19:43;14.70;;;6.57;;
40847;SDS011;26570;50.962;5.340;2023-04-03T00:22:28;15.53;;;6.60;;
40847;SDS011;26570;50.962;5.340;2023-04-03T00:25:13;9.90;;;5.83;;
40847;SDS011;26570;50.962;5.340;2023-04-03T00:27:59;16.37;;;7.43;;
40847;SDS011;26570;50.962;5.340;2023-04-03T00:30:44;8.40;;;6.43;;
40847;SDS011;26570;50.962;5.340;2023-04-03T00:33:30;13.80;;;6.80;;
40847;SDS011;26570;50.962;5.340;2023-04-03T00:36:15;9.20;;;7.07;;
40847;SDS011;26570;50.962;5.340;2023-04-03T00:39:01;10.73;;;7.37;;
40847;SDS011;26570;50.962;5.340;2023-04-03T00:41:46;14.47;;;7.00;;
40847;SDS011;26570;50.962;5.340;2023-04-03T00:47:20;8.30;;;6.50;;
40847;SDS011;26570;50.962;5.340;2023-04-03T00:50:09;11.90;;;6.97;;
40847;SDS011;26570;50.962;5.340;2023-04-03T00:52:54;11.60;;;6.87;;
40847;SDS011;26570;50.962;5.340;2023-04-03T00:55:40;12.20;;;6.80;;
40847;SDS011;26570;50.962;5.340;2023-04-03T00:58:32;10.67;;;6.90;;
40847;SDS011;26570;50.962;5.340;2023-04-03T01:01:22;13.80;;;6.93;;
40847;SDS011;26570;50.962;5.340;2023-04-03T01:04:28;13.43;;;7.17;;
40847;SDS011;26570;50.962;5.340;2023-04-03T01:07:22;15.73;;;7.57;;
40847;SDS011;26570;50.962;5.340;2023-04-03T01:10:13;14.93;;;7.53;;
40847;SDS011;26570;50.962;5.340;2023-04-03T01:13:25;12.20;;;7.83;;
40847;SDS011;26570;50.962;5.340;2023-04-03T01:16:14;11.63;;;7.47;;
40847;SDS011;26570;50.962;5.340;2023-04-03T01:19:00;10.97;;;7.20;;
40847;SDS011;26570;50.962;5.340;2023-04-03T01:22:03;15.20;;;7.13;;
40847;SDS011;26570;50.962;5.340;2023-04-03T01:25:10;12.98;;;6.82;;
40847;SDS011;26570;50.962;5.340;2023-04-03T01:31:27;8.50;;;5.95;;
40847;SDS011;26570;50.962;5.340;2023-04-03T01:34:19;11.07;;;6.67;;
40847;SDS011;26570;50.962;5.340;2023-04-03T01:37:08;12.03;;;7.47;;
40847;SDS011;26570;50.962;5.340;2023-04-03T01:39:53;17.13;;;8.10;;
40847;SDS011;26570;50.962;5.340;2023-04-03T01:42:38;15.23;;;8.10;;
40847;SDS011;26570;50.962;5.340;2023-04-03T01:45:24;10.67;;;7.73;;
40847;SDS011;26570;50.962;5.340;2023-04-03T01:48:09;10.00;;;7.57;;
40847;SDS011;26570;50.962;5.340;2023-04-03T01:50:54;13.10;;;9.27;;
40847;SDS011;26570;50.962;5.340;2023-04-03T01:54:02;16.27;;;9.00;;
40847;SDS011;26570;50.962;5.340;2023-04-03T01:56:47;11.43;;;7.73;;
40847;SDS011;26570;50.962;5.340;2023-04-03T01:59:56;11.93;;;8.90;;
40847;SDS011;26570;50.962;5.340;2023-04-03T02:02:41;16.50;;;9.77;;
40847;SDS011;26570;50.962;5.340;2023-04-03T02:05:27;17.73;;;10.47;;
40847;SDS011;26570;50.962;5.340;2023-04-03T02:08:36;17.07;;;10.60;;
40847;SDS011;26570;50.962;5.340;2023-04-03T02:11:22;17.20;;;10.33;;
40847;SDS011;26570;50.962;5.340;2023-04-03T02:14:10;15.80;;;10.50;;
40847;SDS011;26570;50.962;5.340;2023-04-03T02:16:56;18.83;;;10.17;;
40847;SDS011;26570;50.962;5.340;2023-04-03T02:19:44;14.33;;;10.07;;
40847;SDS011;26570;50.962;5.340;2023-04-03T02:22:35;16.20;;;9.83;;
40847;SDS011;26570;50.962;5.340;2023-04-03T02:25:21;14.90;;;9.50;;
40847;SDS011;26570;50.962;5.340;2023-04-03T02:28:06;15.23;;;8.57;;
40847;SDS011;26570;50.962;5.340;2023-04-03T02:30:51;19.47;;;11.30;;
40847;SDS011;26570;50.962;5.340;2023-04-03T02:33:37;18.63;;;10.43;;
40847;SDS011;26570;50.962;5.340;2023-04-03T02:36:22;18.27;;;10.50;;
40847;SDS011;26570;50.962;5.340;2023-04-03T02:39:07;19.53;;;11.07;;
40847;SDS011;26570;50.962;5.340;2023-04-03T02:41:52;22.50;;;11.80;;
40847;SDS011;26570;50.962;5.340;2023-04-03T02:44:37;18.27;;;10.60;;
40847;SDS011;26570;50.962;5.340;2023-04-03T02:47:23;21.13;;;11.83;;
40847;SDS011;26570;50.962;5.340;2023-04-03T02:50:08;19.37;;;11.17;;
40847;SDS011;26570;50.962;5.340;2023-04-03T02:52:54;20.13;;;11.43;;
40847;SDS011;26570;50.962;5.340;2023-04-03T02:55:42;15.20;;;10.07;;
40847;SDS011;26570;50.962;5.340;2023-04-03T02:58:53;22.60;;;11.93;;
40847;SDS011;26570;50.962;5.340;2023-04-03T03:01:38;20.57;;;11.50;;
40847;SDS011;26570;50.962;5.340;2023-04-03T03:04:23;17.47;;;10.27;;
40847;SDS011;26570;50.962;5.340;2023-04-03T03:07:09;19.70;;;12.03;;
40847;SDS011;26570;50.962;5.340;2023-04-03T03:09:55;18.90;;;12.97;;
40847;SDS011;26570;50.962;5.340;2023-04-03T03:12:40;22.43;;;13.33;;
40847;SDS011;26570;50.962;5.340;2023-04-03T03:15:48;19.63;;;12.13;;
40847;SDS011;26570;50.962;5.340;2023-04-03T03:18:33;20.43;;;13.67;;
40847;SDS011;26570;50.962;5.340;2023-04-03T03:21:18;19.20;;;13.60;;
40847;SDS011;26570;50.962;5.340;2023-04-03T03:24:04;23.13;;;14.33;;
40847;SDS011;26570;50.962;5.340;2023-04-03T03:26:50;27.43;;;15.37;;
40847;SDS011;26570;50.962;5.340;2023-04-03T03:29:36;31.37;;;15.87;;
40847;SDS011;26570;50.962;5.340;2023-04-03T03:32:22;28.47;;;16.87;;
40847;SDS011;26570;50.962;5.340;2023-04-03T03:35:07;22.93;;;15.83;;
40847;SDS011;26570;50.962;5.340;2023-04-03T03:37:53;23.93;;;15.37;;
40847;SDS011;26570;50.962;5.340;2023-04-03T03:40:39;25.83;;;15.30;;
40847;SDS011;26570;50.962;5.340;2023-04-03T03:43:24;27.90;;;15.93;;
40847;SDS011;26570;50.962;5.340;2023-04-03T03:46:32;25.33;;;14.80;;
40847;SDS011;26570;50.962;5.340;2023-04-03T03:49:17;24.87;;;14.80;;
40847;SDS011;26570;50.962;5.340;2023-04-03T03:52:03;27.90;;;15.37;;
40847;SDS011;26570;50.962;5.340;2023-04-03T03:54:49;25.00;;;15.03;;
40847;SDS011;26570;50.962;5.340;2023-04-03T03:57:57;26.90;;;15.97;;
40847;SDS011;26570;50.962;5.340;2023-04-03T04:00:42;21.17;;;15.57;;
40847;SDS011;26570;50.962;5.340;2023-04-03T04:03:51;26.90;;;15.97;;
40847;SDS011;26570;50.962;5.340;2023-04-03T04:06:39;24.73;;;15.70;;
40847;SDS011;26570;50.962;5.340;2023-04-03T04:09:24;29.90;;;15.87;;
40847;SDS011;26570;50.962;5.340;2023-04-03T04:12:09;35.53;;;17.50;;
40847;SDS011;26570;50.962;5.340;2023-04-03T04:14:55;27.33;;;16.67;;
40847;SDS011;26570;50.962;5.340;2023-04-03T04:17:44;26.23;;;16.57;;
40847;SDS011;26570;50.962;5.340;2023-04-03T04:20:30;27.13;;;16.73;;
40847;SDS011;26570;50.962;5.340;2023-04-03T04:23:16;26.63;;;16.10;;
40847;SDS011;26570;50.962;5.340;2023-04-03T04:26:02;28.10;;;17.30;;
40847;SDS011;26570;50.962;5.340;2023-04-03T04:28:48;32.27;;;18.37;;
40847;SDS011;26570;50.962;5.340;2023-04-03T04:31:33;24.60;;;18.40;;
40847;SDS011;26570;50.962;5.340;2023-04-03T04:34:19;26.80;;;17.77;;
40847;SDS011;26570;50.962;5.340;2023-04-03T04:37:04;30.00;;;18.23;;
40847;SDS011;26570;50.962;5.340;2023-04-03T04:39:50;29.87;;;17.93;;
40847;SDS011;26570;50.962;5.340;2023-04-03T04:42:35;26.70;;;19.27;;
40847;SDS011;26570;50.962;5.340;2023-04-03T04:45:21;32.03;;;20.17;;
40847;SDS011;26570;50.962;5.340;2023-04-03T04:48:06;33.57;;;20.57;;
40847;SDS011;26570;50.962;5.340;2023-04-03T04:50:51;31.50;;;21.37;;
40847;SDS011;26570;50.962;5.340;2023-04-03T04:53:37;35.10;;;22.30;;
40847;SDS011;26570;50.962;5.340;2023-04-03T04:56:22;38.07;;;22.63;;
40847;SDS011;26570;50.962;5.340;2023-04-03T04:59:08;32.33;;;23.23;;
40847;SDS011;26570;50.962;5.340;2023-04-03T05:01:53;36.50;;;23.80;;
40847;SDS011;26570;50.962;5.340;2023-04-03T05:04:39;36.50;;;22.93;;
40847;SDS011;26570;50.962;5.340;2023-04-03T05:07:47;34.10;;;21.93;;
40847;SDS011;26570;50.962;5.340;2023-04-03T05:10:32;35.23;;;22.53;;
40847;SDS011;26570;50.962;5.340;2023-04-03T05:13:17;30.17;;;21.80;;
40847;SDS011;26570;50.962;5.340;2023-04-03T05:16:03;36.43;;;23.60;;
40847;SDS011;26570;50.962;5.340;2023-04-03T05:18:49;34.20;;;23.27;;
40847;SDS011;26570;50.962;5.340;2023-04-03T05:21:35;36.77;;;23.73;;
40847;SDS011;26570;50.962;5.340;2023-04-03T05:24:20;37.53;;;22.60;;
40847;SDS011;26570;50.962;5.340;2023-04-03T05:27:06;35.83;;;22.40;;
40847;SDS011;26570;50.962;5.340;2023-04-03T05:29:52;33.33;;;23.37;;
40847;SDS011;26570;50.962;5.340;2023-04-03T05:32:37;38.33;;;24.63;;
40847;SDS011;26570;50.962;5.340;2023-04-03T05:35:23;32.20;;;23.20;;
40847;SDS011;26570;50.962;5.340;2023-04-03T05:38:09;36.73;;;23.87;;
40847;SDS011;26570;50.962;5.340;2023-04-03T05:40:54;32.57;;;22.83;;
40847;SDS011;26570;50.962;5.340;2023-04-03T05:43:40;41.87;;;24.00;;
40847;SDS011;26570;50.962;5.340;2023-04-03T05:46:26;32.60;;;23.90;;
40847;SDS011;26570;50.962;5.340;2023-04-03T05:49:11;40.20;;;24.27;;
40847;SDS011;26570;50.962;5.340;2023-04-03T05:51:56;32.17;;;23.33;;
40847;SDS011;26570;50.962;5.340;2023-04-03T05:54:41;31.37;;;22.10;;
40847;SDS011;26570;50.962;5.340;2023-04-03T05:57:28;35.67;;;22.63;;
40847;SDS011;26570;50.962;5.340;2023-04-03T06:00:15;31.17;;;21.30;;
40847;SDS011;26570;50.962;5.340;2023-04-03T06:03:00;35.27;;;21.10;;
40847;SDS011;26570;50.962;5.340;2023-04-03T06:05:46;29.93;;;19.33;;
40847;SDS011;26570;50.962;5.340;2023-04-03T06:08:32;28.03;;;18.50;;
40847;SDS011;26570;50.962;5.340;2023-04-03T06:11:18;24.83;;;17.97;;
40847;SDS011;26570;50.962;5.340;2023-04-03T06:14:06;22.63;;;16.57;;
40847;SDS011;26570;50.962;5.340;2023-04-03T06:16:53;22.93;;;15.17;;
40847;SDS011;26570;50.962;5.340;2023-04-03T06:19:39;20.60;;;13.53;;
40847;SDS011;26570;50.962;5.340;2023-04-03T06:22:47;18.87;;;12.23;;
40847;SDS011;26570;50.962;5.340;2023-04-03T06:25:33;19.50;;;10.40;;
40847;SDS011;26570;50.962;5.340;2023-04-03T06:28:18;12.47;;;8.73;;
40847;SDS011;26570;50.962;5.340;2023-04-03T06:31:07;18.97;;;8.27;;
40847;SDS011;26570;50.962;5.340;2023-04-03T06:33:53;14.83;;;6.33;;
40847;SDS011;26570;50.962;5.340;2023-04-03T06:36:45;11.07;;;4.40;;
40847;SDS011;26570;50.962;5.340;2023-04-03T06:39:46;9.13;;;3.33;;
40847;SDS011;26570;50.962;5.340;2023-04-03T06:43:05;4.83;;;2.57;;
40847;SDS011;26570;50.962;5.340;2023-04-03T06:46:41;7.23;;;2.27;;
40847;SDS011;26570;50.962;5.340;2023-04-03T06:49:35;2.70;;;1.20;;
40847;SDS011;26570;50.962;5.340;2023-04-03T06:52:23;3.70;;;1.20;;
40847;SDS011;26570;50.962;5.340;2023-04-03T06:55:40;4.97;;;1.87;;
40847;SDS011;26570;50.962;5.340;2023-04-03T06:58:28;6.47;;;1.80;;
40847;SDS011;26570;50.962;5.340;2023-04-03T07:01:18;5.32;;;1.60;;
40847;SDS011;26570;50.962;5.340;2023-04-03T07:04:04;3.70;;;1.10;;
40847;SDS011;26570;50.962;5.340;2023-04-03T07:06:50;6.37;;;1.40;;
40847;SDS011;26570;50.962;5.340;2023-04-03T07:10:01;3.13;;;0.97;;
40847;SDS011;26570;50.962;5.340;2023-04-03T07:12:49;6.23;;;1.00;;
40847;SDS011;26570;50.962;5.340;2023-04-03T07:15:38;7.93;;;1.33;;
40847;SDS011;26570;50.962;5.340;2023-04-03T07:18:24;4.53;;;1.40;;
40847;SDS011;26570;50.962;5.340;2023-04-03T07:21:13;3.40;;;1.10;;
40847;SDS011;26570;50.962;5.340;2023-04-03T07:24:03;4.57;;;1.00;;
40847;SDS011;26570;50.962;5.340;2023-04-03T07:26:49;4.73;;;0.90;;
40847;SDS011;26570;50.962;5.340;2023-04-03T07:29:44;2.90;;;0.90;;
40847;SDS011;26570;50.962;5.340;2023-04-03T07:32:32;5.23;;;1.30;;
40847;SDS011;26570;50.962;5.340;2023-04-03T07:35:40;3.60;;;0.93;;
40847;SDS011;26570;50.962;5.340;2023-04-03T07:38:25;4.63;;;0.80;;
40847;SDS011;26570;50.962;5.340;2023-04-03T07:41:35;6.40;;;0.80;;
40847;SDS011;26570;50.962;5.340;2023-04-03T07:44:26;4.43;;;0.90;;
40847;SDS011;26570;50.962;5.340;2023-04-03T07:47:14;3.43;;;0.90;;
40847;SDS011;26570;50.962;5.340;2023-04-03T07:50:01;10.83;;;1.23;;
40847;SDS011;26570;50.962;5.340;2023-04-03T07:52:49;5.47;;;0.87;;
40847;SDS011;26570;50.962;5.340;2023-04-03T07:55:39;3.90;;;1.20;;
40847;SDS011;26570;50.962;5.340;2023-04-03T07:58:27;4.57;;;1.00;;
40847;SDS011;26570;50.962;5.340;2023-04-03T08:01:15;3.30;;;0.70;;
40847;SDS011;26570;50.962;5.340;2023-04-03T08:04:00;3.77;;;0.80;;
40847;SDS011;26570;50.962;5.340;2023-04-03T08:06:45;5.47;;;0.80;;
40847;SDS011;26570;50.962;5.340;2023-04-03T08:09:36;3.17;;;0.73;;
40847;SDS011;26570;50.962;5.340;2023-04-03T08:12:49;4.40;;;0.80;;
40847;SDS011;26570;50.962;5.340;2023-04-03T08:15:35;4.10;;;0.80;;
40847;SDS011;26570;50.962;5.340;2023-04-03T08:18:20;12.50;;;1.27;;
40847;SDS011;26570;50.962;5.340;2023-04-03T08:21:09;3.67;;;0.77;;
40847;SDS011;26570;50.962;5.340;2023-04-03T08:23:55;6.33;;;0.70;;
40847;SDS011;26570;50.962;5.340;2023-04-03T08:27:06;2.63;;;0.60;;
40847;SDS011;26570;50.962;5.340;2023-04-03T08:29:54;4.03;;;0.80;;
40847;SDS011;26570;50.962;5.340;2023-04-03T08:32:43;3.63;;;0.77;;
40847;SDS011;26570;50.962;5.340;2023-04-03T08:35:29;4.27;;;0.70;;
40847;SDS011;26570;50.962;5.340;2023-04-03T08:38:16;3.47;;;0.63;;
40847;SDS011;26570;50.962;5.340;2023-04-03T08:41:16;2.70;;;0.70;;
40847;SDS011;26570;50.962;5.340;2023-04-03T08:50:58;4.38;;;0.50;;
40847;SDS011;26570;50.962;5.340;2023-04-03T08:54:06;3.80;;;0.70;;
40847;SDS011;26570;50.962;5.340;2023-04-03T08:57:31;1.57;;;0.43;;
40847;SDS011;26570;50.962;5.340;2023-04-03T09:00:51;1.83;;;0.50;;
40847;SDS011;26570;50.962;5.340;2023-04-03T09:03:50;5.33;;;0.50;;
40847;SDS011;26570;50.962;5.340;2023-04-03T09:06:38;1.17;;;0.40;;
40847;SDS011;26570;50.962;5.340;2023-04-03T09:12:27;2.63;;;0.50;;
40847;SDS011;26570;50.962;5.340;2023-04-03T09:15:39;1.67;;;0.43;;
40847;SDS011;26570;50.962;5.340;2023-04-03T09:18:53;3.00;;;0.60;;
40847;SDS011;26570;50.962;5.340;2023-04-03T09:28:06;2.37;;;0.40;;
40847;SDS011;26570;50.962;5.340;2023-04-03T09:30:53;2.83;;;0.40;;
40847;SDS011;26570;50.962;5.340;2023-04-03T09:33:38;3.13;;;0.50;;
40847;SDS011;26570;50.962;5.340;2023-04-03T09:39:45;2.17;;;0.43;;
40847;SDS011;26570;50.962;5.340;2023-04-03T09:42:40;3.00;;;0.40;;
40847;SDS011;26570;50.962;5.340;2023-04-03T09:45:33;1.87;;;0.53;;
40847;SDS011;26570;50.962;5.340;2023-04-03T09:48:21;3.35;;;0.45;;
40847;SDS011;26570;50.962;5.340;2023-04-03T09:51:08;4.60;;;0.57;;
40847;SDS011;26570;50.962;5.340;2023-04-03T09:54:00;4.17;;;0.53;;
40847;SDS011;26570;50.962;5.340;2023-04-03T09:57:14;2.87;;;0.70;;
40847;SDS011;26570;50.962;5.340;2023-04-03T10:00:00;2.87;;;0.50;;
40847;SDS011;26570;50.962;5.340;2023-04-03T10:03:20;5.77;;;0.70;;
40847;SDS011;26570;50.962;5.340;2023-04-03T10:06:39;3.67;;;0.60;;
40847;SDS011;26570;50.962;5.340;2023-04-03T10:09:32;4.00;;;0.50;;
40847;SDS011;26570;50.962;5.340;2023-04-03T10:12:40;2.87;;;0.50;;
40847;SDS011;26570;50.962;5.340;2023-04-03T10:15:25;2.57;;;0.40;;
40847;SDS011;26570;50.962;5.340;2023-04-03T10:18:31;2.03;;;0.40;;
40847;SDS011;26570;50.962;5.340;2023-04-03T10:28:23;1.30;;;0.28;;
40847;SDS011;26570;50.962;5.340;2023-04-03T10:38:33;1.53;;;0.30;;
40847;SDS011;26570;50.962;5.340;2023-04-03T10:41:52;4.37;;;0.30;;
40847;SDS011;26570;50.962;5.340;2023-04-03T10:48:16;3.50;;;0.30;;
40847;SDS011;26570;50.962;5.340;2023-04-03T10:51:53;2.00;;;0.30;;
40847;SDS011;26570;50.962;5.340;2023-04-03T10:58:30;0.80;;;0.10;;
40847;SDS011;26570;50.962;5.340;2023-04-03T11:01:30;2.00;;;0.10;;
40847;SDS011;26570;50.962;5.340;2023-04-03T11:04:34;3.73;;;0.43;;
40847;SDS011;26570;50.962;5.340;2023-04-03T11:07:47;0.70;;;0.20;;
40847;SDS011;26570;50.962;5.340;2023-04-03T11:10:43;0.77;;;0.10;;
40847;SDS011;26570;50.962;5.340;2023-04-03T11:17:06;1.87;;;0.20;;
40847;SDS011;26570;50.962;5.340;2023-04-03T11:20:23;2.60;;;0.20;;
40847;SDS011;26570;50.962;5.340;2023-04-03T11:23:23;0.77;;;0.10;;
40847;SDS011;26570;50.962;5.340;2023-04-03T11:26:11;1.20;;;0.10;;
40847;SDS011;26570;50.962;5.340;2023-04-03T11:29:03;3.03;;;0.20;;
40847;SDS011;26570;50.962;5.340;2023-04-03T11:32:02;1.27;;;0.20;;
40847;SDS011;26570;50.962;5.340;2023-04-03T11:35:02;0.97;;;0.20;;
40847;SDS011;26570;50.962;5.340;2023-04-03T11:37:54;1.97;;;0.20;;
40847;SDS011;26570;50.962;5.340;2023-04-03T11:41:03;2.50;;;0.20;;
40847;SDS011;26570;50.962;5.340;2023-04-03T11:44:01;3.53;;;0.20;;
40847;SDS011;26570;50.962;5.340;2023-04-03T11:47:10;1.47;;;0.20;;
40847;SDS011;26570;50.962;5.340;2023-04-03T11:53:32;0.50;;;0.20;;
40847;SDS011;26570;50.962;5.340;2023-04-03T11:59:37;1.37;;;0.30;;
40847;SDS011;26570;50.962;5.340;2023-04-03T12:02:38;1.23;;;0.20;;
40847;SDS011;26570;50.962;5.340;2023-04-03T12:05:28;0.70;;;0.17;;
40847;SDS011;26570;50.962;5.340;2023-04-03T12:08:21;1.07;;;0.20;;
40847;SDS011;26570;50.962;5.340;2023-04-03T12:11:36;1.63;;;0.40;;
40847;SDS011;26570;50.962;5.340;2023-04-03T12:14:22;3.07;;;0.27;;
40847;SDS011;26570;50.962;5.340;2023-04-03T12:17:37;4.00;;;0.30;;
40847;SDS011;26570;50.962;5.340;2023-04-03T12:27:33;5.27;;;0.30;;
40847;SDS011;26570;50.962;5.340;2023-04-03T12:30:27;2.07;;;0.30;;
40847;SDS011;26570;50.962;5.340;2023-04-03T12:33:24;1.67;;;0.30;;
40847;SDS011;26570;50.962;5.340;2023-04-03T12:52:44;3.47;;;0.30;;
40847;SDS011;26570;50.962;5.340;2023-04-03T12:55:34;1.77;;;0.30;;
40847;SDS011;26570;50.962;5.340;2023-04-03T12:58:23;1.60;;;0.40;;
40847;SDS011;26570;50.962;5.340;2023-04-03T13:01:23;1.58;;;0.30;;
40847;SDS011;26570;50.962;5.340;2023-04-03T13:04:14;2.07;;;0.30;;
40847;SDS011;26570;50.962;5.340;2023-04-03T13:07:00;2.87;;;0.30;;
40847;SDS011;26570;50.962;5.340;2023-04-03T13:12:58;2.37;;;0.20;;
40847;SDS011;26570;50.962;5.340;2023-04-03T13:15:52;1.57;;;0.40;;
40847;SDS011;26570;50.962;5.340;2023-04-03T13:18:43;2.20;;;0.30;;
40847;SDS011;26570;50.962;5.340;2023-04-03T13:21:37;1.35;;;0.28;;
40847;SDS011;26570;50.962;5.340;2023-04-03T13:24:23;2.13;;;0.30;;
40847;SDS011;26570;50.962;5.340;2023-04-03T13:27:10;1.13;;;0.30;;
40847;SDS011;26570;50.962;5.340;2023-04-03T13:30:02;3.70;;;0.40;;
40847;SDS011;26570;50.962;5.340;2023-04-03T13:32:51;0.90;;;0.30;;
40847;SDS011;26570;50.962;5.340;2023-04-03T13:35:39;3.70;;;0.50;;
40847;SDS011;26570;50.962;5.340;2023-04-03T13:38:26;3.03;;;0.40;;
40847;SDS011;26570;50.962;5.340;2023-04-03T13:41:29;1.60;;;0.40;;
40847;SDS011;26570;50.962;5.340;2023-04-03T13:47:24;4.03;;;0.30;;
40847;SDS011;26570;50.962;5.340;2023-04-03T13:50:20;3.53;;;0.40;;
40847;SDS011;26570;50.962;5.340;2023-04-03T13:53:11;1.33;;;0.40;;
40847;SDS011;26570;50.962;5.340;2023-04-03T13:56:30;2.27;;;0.60;;
40847;SDS011;26570;50.962;5.340;2023-04-03T13:59:23;3.67;;;0.40;;
40847;SDS011;26570;50.962;5.340;2023-04-03T14:02:28;1.90;;;0.30;;
40847;SDS011;26570;50.962;5.340;2023-04-03T14:05:18;1.20;;;0.30;;
40847;SDS011;26570;50.962;5.340;2023-04-03T14:08:12;1.80;;;0.40;;
40847;SDS011;26570;50.962;5.340;2023-04-03T14:10:59;3.17;;;0.40;;
40847;SDS011;26570;50.962;5.340;2023-04-03T14:14:14;2.97;;;0.40;;
40847;SDS011;26570;50.962;5.340;2023-04-03T14:17:10;2.97;;;0.50;;
40847;SDS011;26570;50.962;5.340;2023-04-03T14:20:00;2.63;;;0.40;;
40847;SDS011;26570;50.962;5.340;2023-04-03T14:23:08;2.27;;;0.37;;
40847;SDS011;26570;50.962;5.340;2023-04-03T14:25:54;3.23;;;0.40;;
40847;SDS011;26570;50.962;5.340;2023-04-03T14:28:40;3.27;;;0.40;;
40847;SDS011;26570;50.962;5.340;2023-04-03T14:31:34;1.63;;;0.33;;
40847;SDS011;26570;50.962;5.340;2023-04-03T14:34:20;3.43;;;0.40;;
40847;SDS011;26570;50.962;5.340;2023-04-03T14:37:28;1.90;;;0.40;;
40847;SDS011;26570;50.962;5.340;2023-04-03T14:40:37;3.37;;;0.40;;
40847;SDS011;26570;50.962;5.340;2023-04-03T14:43:25;3.53;;;0.30;;
40847;SDS011;26570;50.962;5.340;2023-04-03T14:46:38;3.43;;;0.40;;
40847;SDS011;26570;50.962;5.340;2023-04-03T14:49:49;1.47;;;0.30;;
40847;SDS011;26570;50.962;5.340;2023-04-03T14:52:39;1.20;;;0.30;;
40847;SDS011;26570;50.962;5.340;2023-04-03T14:55:47;2.53;;;0.40;;
40847;SDS011;26570;50.962;5.340;2023-04-03T14:58:58;3.70;;;0.40;;
40847;SDS011;26570;50.962;5.340;2023-04-03T15:01:45;4.17;;;0.40;;
40847;SDS011;26570;50.962;5.340;2023-04-03T15:04:33;3.23;;;0.40;;
40847;SDS011;26570;50.962;5.340;2023-04-03T15:07:42;1.73;;;0.40;;
40847;SDS011;26570;50.962;5.340;2023-04-03T15:10:32;2.47;;;0.40;;
40847;SDS011;26570;50.962;5.340;2023-04-03T15:13:19;3.00;;;0.40;;
40847;SDS011;26570;50.962;5.340;2023-04-03T15:16:30;2.57;;;0.40;;
40847;SDS011;26570;50.962;5.340;2023-04-03T15:19:18;5.10;;;0.40;;
40847;SDS011;26570;50.962;5.340;2023-04-03T15:22:09;2.93;;;0.30;;
40847;SDS011;26570;50.962;5.340;2023-04-03T15:25:23;1.80;;;0.30;;
40847;SDS011;26570;50.962;5.340;2023-04-03T15:28:25;1.07;;;0.30;;
40847;SDS011;26570;50.962;5.340;2023-04-03T15:31:20;2.40;;;0.30;;
40847;SDS011;26570;50.962;5.340;2023-04-03T15:34:08;2.03;;;0.43;;
40847;SDS011;26570;50.962;5.340;2023-04-03T15:36:56;1.20;;;0.30;;
40847;SDS011;26570;50.962;5.340;2023-04-03T15:39:42;1.53;;;0.30;;
40847;SDS011;26570;50.962;5.340;2023-04-03T15:42:28;1.60;;;0.40;;
40847;SDS011;26570;50.962;5.340;2023-04-03T15:45:15;2.63;;;0.30;;
40847;SDS011;26570;50.962;5.340;2023-04-03T15:48:01;2.60;;;0.30;;
40847;SDS011;26570;50.962;5.340;2023-04-03T15:50:48;1.30;;;0.30;;
40847;SDS011;26570;50.962;5.340;2023-04-03T15:53:34;1.00;;;0.30;;
40847;SDS011;26570;50.962;5.340;2023-04-03T15:56:20;2.23;;;0.40;;
40847;SDS011;26570;50.962;5.340;2023-04-03T15:59:10;4.40;;;0.30;;
40847;SDS011;26570;50.962;5.340;2023-04-03T16:01:56;2.60;;;0.37;;
40847;SDS011;26570;50.962;5.340;2023-04-03T16:05:03;1.83;;;0.20;;
40847;SDS011;26570;50.962;5.340;2023-04-03T16:07:49;1.20;;;0.40;;
40847;SDS011;26570;50.962;5.340;2023-04-03T16:10:36;3.67;;;0.40;;
40847;SDS011;26570;50.962;5.340;2023-04-03T16:13:25;2.13;;;0.30;;
40847;SDS011;26570;50.962;5.340;2023-04-03T16:16:10;1.90;;;0.30;;
40847;SDS011;26570;50.962;5.340;2023-04-03T16:18:56;4.53;;;0.30;;
40847;SDS011;26570;50.962;5.340;2023-04-03T16:21:42;2.70;;;0.30;;
40847;SDS011;26570;50.962;5.340;2023-04-03T16:24:28;4.77;;;0.30;;
40847;SDS011;26570;50.962;5.340;2023-04-03T16:27:15;2.13;;;0.30;;
40847;SDS011;26570;50.962;5.340;2023-04-03T16:30:25;2.20;;;0.30;;
40847;SDS011;26570;50.962;5.340;2023-04-03T16:33:12;1.83;;;0.40;;
40847;SDS011;26570;50.962;5.340;2023-04-03T16:35:58;2.33;;;0.30;;
40847;SDS011;26570;50.962;5.340;2023-04-03T16:38:56;1.73;;;0.33;;
40847;SDS011;26570;50.962;5.340;2023-04-03T16:41:42;2.13;;;0.30;;
40847;SDS011;26570;50.962;5.340;2023-04-03T16:44:27;2.20;;;0.30;;
40847;SDS011;26570;50.962;5.340;2023-04-03T16:47:15;4.07;;;0.40;;
40847;SDS011;26570;50.962;5.340;2023-04-03T16:50:03;2.00;;;0.30;;
40847;SDS011;26570;50.962;5.340;2023-04-03T16:52:49;2.07;;;0.40;;
40847;SDS011;26570;50.962;5.340;2023-04-03T16:55:41;3.53;;;0.33;;
40847;SDS011;26570;50.962;5.340;2023-04-03T16:58:26;2.20;;;0.30;;
40847;SDS011;26570;50.962;5.340;2023-04-03T17:01:13;1.73;;;0.30;;
40847;SDS011;26570;50.962;5.340;2023-04-03T17:04:00;1.70;;;0.30;;
40847;SDS011;26570;50.962;5.340;2023-04-03T17:07:20;4.27;;;0.30;;
40847;SDS011;26570;50.962;5.340;2023-04-03T17:10:10;3.10;;;0.33;;
40847;SDS011;26570;50.962;5.340;2023-04-03T17:12:57;2.70;;;0.30;;
40847;SDS011;26570;50.962;5.340;2023-04-03T17:15:45;2.30;;;0.40;;
40847;SDS011;26570;50.962;5.340;2023-04-03T17:18:37;3.33;;;0.40;;
40847;SDS011;26570;50.962;5.340;2023-04-03T17:21:46;4.63;;;0.30;;
40847;SDS011;26570;50.962;5.340;2023-04-03T17:24:35;1.57;;;0.40;;
40847;SDS011;26570;50.962;5.340;2023-04-03T17:27:20;2.73;;;0.40;;
40847;SDS011;26570;50.962;5.340;2023-04-03T17:30:38;4.20;;;0.30;;
40847;SDS011;26570;50.962;5.340;2023-04-03T17:33:49;2.87;;;0.40;;
40847;SDS011;26570;50.962;5.340;2023-04-03T17:36:35;1.90;;;0.40;;
40847;SDS011;26570;50.962;5.340;2023-04-03T17:39:26;3.63;;;0.40;;
40847;SDS011;26570;50.962;5.340;2023-04-03T17:42:14;2.43;;;0.40;;
40847;SDS011;26570;50.962;5.340;2023-04-03T17:45:00;3.80;;;0.40;;
40847;SDS011;26570;50.962;5.340;2023-04-03T17:47:46;3.13;;;0.40;;
40847;SDS011;26570;50.962;5.340;2023-04-03T17:50:33;5.13;;;0.40;;
40847;SDS011;26570;50.962;5.340;2023-04-03T17:53:23;1.37;;;0.33;;
40847;SDS011;26570;50.962;5.340;2023-04-03T17:56:19;2.57;;;0.40;;
40847;SDS011;26570;50.962;5.340;2023-04-03T17:59:23;3.00;;;0.50;;
40847;SDS011;26570;50.962;5.340;2023-04-03T18:02:13;2.27;;;0.33;;
40847;SDS011;26570;50.962;5.340;2023-04-03T18:04:58;5.13;;;0.50;;
40847;SDS011;26570;50.962;5.340;2023-04-03T18:07:53;3.97;;;0.30;;
40847;SDS011;26570;50.962;5.340;2023-04-03T18:10:45;2.90;;;0.40;;
40847;SDS011;26570;50.962;5.340;2023-04-03T18:13:36;1.77;;;0.40;;
40847;SDS011;26570;50.962;5.340;2023-04-03T18:16:23;2.93;;;0.40;;
40847;SDS011;26570;50.962;5.340;2023-04-03T18:19:09;4.53;;;0.70;;
40847;SDS011;26570;50.962;5.340;2023-04-03T18:22:23;2.25;;;0.35;;
40847;SDS011;26570;50.962;5.340;2023-04-03T18:25:12;2.93;;;0.40;;
40847;SDS011;26570;50.962;5.340;2023-04-03T18:28:23;1.90;;;0.40;;
40847;SDS011;26570;50.962;5.340;2023-04-03T18:31:33;2.83;;;0.40;;
40847;SDS011;26570;50.962;5.340;2023-04-03T18:34:22;2.13;;;0.50;;
40847;SDS011;26570;50.962;5.340;2023-04-03T18:37:31;3.00;;;0.50;;